sensor_id;sensor_type;location;lat;lon;timestamp;P1;durP1;ratioP1;P2;durP2;ratioP2
55007;SDS011;40902;45.116;21.296;2022-12-18T00:01:03;60.95;;;32.45;;
55007;SDS011;40902;45.116;21.296;2022-12-18T00:03:34;55.08;;;29.63;;
55007;SDS011;40902;45.116;21.296;2022-12-18T00:06:01;56.83;;;28.90;;
55007;SDS011;40902;45.116;21.296;2022-12-18T00:08:27;55.80;;;30.33;;
55007;SDS011;40902;45.116;21.296;2022-12-18T00:10:53;55.17;;;30.38;;
55007;SDS011;40902;45.116;21.296;2022-12-18T00:13:19;58.30;;;31.17;;
55007;SDS011;40902;45.116;21.296;2022-12-18T00:15:45;55.38;;;28.60;;
55007;SDS011;40902;45.116;21.296;2022-12-18T00:18:10;58.92;;;30.33;;
55007;SDS011;40902;45.116;21.296;2022-12-18T00:20:37;55.60;;;29.45;;
55007;SDS011;40902;45.116;21.296;2022-12-18T00:23:04;59.70;;;30.50;;
55007;SDS011;40902;45.116;21.296;2022-12-18T00:25:34;53.92;;;30.85;;
55007;SDS011;40902;45.116;21.296;2022-12-18T00:28:01;59.30;;;30.65;;
55007;SDS011;40902;45.116;21.296;2022-12-18T00:30:28;58.35;;;30.35;;
55007;SDS011;40902;45.116;21.296;2022-12-18T00:32:55;57.85;;;30.35;;
55007;SDS011;40902;45.116;21.296;2022-12-18T00:35:22;54.05;;;30.35;;
55007;SDS011;40902;45.116;21.296;2022-12-18T00:37:47;54.40;;;30.08;;
55007;SDS011;40902;45.116;21.296;2022-12-18T00:40:13;55.47;;;29.80;;
55007;SDS011;40902;45.116;21.296;2022-12-18T00:42:39;57.55;;;30.90;;
55007;SDS011;40902;45.116;21.296;2022-12-18T00:45:25;56.22;;;30.77;;
55007;SDS011;40902;45.116;21.296;2022-12-18T00:47:53;60.83;;;31.40;;
55007;SDS011;40902;45.116;21.296;2022-12-18T00:50:20;58.00;;;30.15;;
55007;SDS011;40902;45.116;21.296;2022-12-18T00:52:47;57.50;;;30.63;;
55007;SDS011;40902;45.116;21.296;2022-12-18T00:55:12;57.65;;;30.83;;
55007;SDS011;40902;45.116;21.296;2022-12-18T00:57:39;54.13;;;29.75;;
55007;SDS011;40902;45.116;21.296;2022-12-18T01:00:05;54.42;;;29.58;;
55007;SDS011;40902;45.116;21.296;2022-12-18T01:02:33;58.65;;;31.58;;
55007;SDS011;40902;45.116;21.296;2022-12-18T01:04:58;58.20;;;30.17;;
55007;SDS011;40902;45.116;21.296;2022-12-18T01:07:24;58.78;;;30.80;;
55007;SDS011;40902;45.116;21.296;2022-12-18T01:09:50;58.58;;;30.40;;
55007;SDS011;40902;45.116;21.296;2022-12-18T01:12:15;57.55;;;30.02;;
55007;SDS011;40902;45.116;21.296;2022-12-18T01:14:41;59.30;;;30.48;;
55007;SDS011;40902;45.116;21.296;2022-12-18T01:17:07;58.53;;;29.30;;
55007;SDS011;40902;45.116;21.296;2022-12-18T01:19:32;55.83;;;28.67;;
55007;SDS011;40902;45.116;21.296;2022-12-18T01:21:58;56.72;;;30.10;;
55007;SDS011;40902;45.116;21.296;2022-12-18T01:24:25;58.15;;;31.75;;
55007;SDS011;40902;45.116;21.296;2022-12-18T01:26:50;57.10;;;31.08;;
55007;SDS011;40902;45.116;21.296;2022-12-18T01:29:16;55.65;;;29.10;;
55007;SDS011;40902;45.116;21.296;2022-12-18T01:31:42;53.88;;;28.35;;
55007;SDS011;40902;45.116;21.296;2022-12-18T01:34:08;55.53;;;29.30;;
55007;SDS011;40902;45.116;21.296;2022-12-18T01:36:36;53.38;;;28.75;;
55007;SDS011;40902;45.116;21.296;2022-12-18T01:39:05;61.60;;;29.90;;
55007;SDS011;40902;45.116;21.296;2022-12-18T01:41:39;59.20;;;29.95;;
55007;SDS011;40902;45.116;21.296;2022-12-18T01:49:52;58.20;;;29.48;;
55007;SDS011;40902;45.116;21.296;2022-12-18T01:52:18;55.40;;;29.75;;
55007;SDS011;40902;45.116;21.296;2022-12-18T01:54:46;56.63;;;31.40;;
55007;SDS011;40902;45.116;21.296;2022-12-18T01:57:14;60.85;;;31.77;;
55007;SDS011;40902;45.116;21.296;2022-12-18T01:59:40;57.80;;;29.35;;
55007;SDS011;40902;45.116;21.296;2022-12-18T02:02:09;60.75;;;31.55;;
55007;SDS011;40902;45.116;21.296;2022-12-18T02:04:36;62.53;;;30.92;;
55007;SDS011;40902;45.116;21.296;2022-12-18T02:12:25;61.03;;;31.08;;
55007;SDS011;40902;45.116;21.296;2022-12-18T02:15:06;57.83;;;30.23;;
55007;SDS011;40902;45.116;21.296;2022-12-18T02:17:59;59.80;;;30.63;;
55007;SDS011;40902;45.116;21.296;2022-12-18T02:26:10;60.60;;;29.60;;
55007;SDS011;40902;45.116;21.296;2022-12-18T02:28:45;63.83;;;29.33;;
55007;SDS011;40902;45.116;21.296;2022-12-18T02:31:20;58.55;;;30.17;;
55007;SDS011;40902;45.116;21.296;2022-12-18T02:33:49;61.28;;;31.08;;
55007;SDS011;40902;45.116;21.296;2022-12-18T02:36:25;63.03;;;30.90;;
55007;SDS011;40902;45.116;21.296;2022-12-18T02:38:53;57.85;;;30.15;;
55007;SDS011;40902;45.116;21.296;2022-12-18T02:41:21;57.80;;;30.55;;
55007;SDS011;40902;45.116;21.296;2022-12-18T02:43:48;55.30;;;29.88;;
55007;SDS011;40902;45.116;21.296;2022-12-18T02:46:31;59.28;;;31.45;;
55007;SDS011;40902;45.116;21.296;2022-12-18T02:51:49;59.55;;;30.58;;
55007;SDS011;40902;45.116;21.296;2022-12-18T02:57:15;61.80;;;31.05;;
55007;SDS011;40902;45.116;21.296;2022-12-18T02:59:57;60.20;;;31.35;;
55007;SDS011;40902;45.116;21.296;2022-12-18T03:05:20;61.92;;;31.40;;
55007;SDS011;40902;45.116;21.296;2022-12-18T03:07:56;60.92;;;31.52;;
55007;SDS011;40902;45.116;21.296;2022-12-18T03:10:26;58.65;;;30.50;;
55007;SDS011;40902;45.116;21.296;2022-12-18T03:13:06;60.60;;;30.52;;
55007;SDS011;40902;45.116;21.296;2022-12-18T03:15:42;50.97;;;27.83;;
55007;SDS011;40902;45.116;21.296;2022-12-18T03:18:29;57.28;;;29.25;;
55007;SDS011;40902;45.116;21.296;2022-12-18T03:21:00;57.10;;;28.48;;
55007;SDS011;40902;45.116;21.296;2022-12-18T03:23:30;56.53;;;29.48;;
55007;SDS011;40902;45.116;21.296;2022-12-18T03:26:07;61.50;;;29.55;;
55007;SDS011;40902;45.116;21.296;2022-12-18T03:28:36;60.03;;;29.83;;
55007;SDS011;40902;45.116;21.296;2022-12-18T03:31:04;60.25;;;29.90;;
55007;SDS011;40902;45.116;21.296;2022-12-18T03:33:40;61.80;;;30.10;;
55007;SDS011;40902;45.116;21.296;2022-12-18T03:36:10;60.80;;;31.35;;
55007;SDS011;40902;45.116;21.296;2022-12-18T03:38:36;58.70;;;31.17;;
55007;SDS011;40902;45.116;21.296;2022-12-18T03:49:41;60.80;;;31.30;;
55007;SDS011;40902;45.116;21.296;2022-12-18T03:55:01;60.13;;;30.15;;
55007;SDS011;40902;45.116;21.296;2022-12-18T03:57:28;56.05;;;29.42;;
55007;SDS011;40902;45.116;21.296;2022-12-18T03:59:57;63.40;;;32.80;;
55007;SDS011;40902;45.116;21.296;2022-12-18T04:02:28;56.63;;;30.77;;
55007;SDS011;40902;45.116;21.296;2022-12-18T04:04:57;56.75;;;29.25;;
55007;SDS011;40902;45.116;21.296;2022-12-18T04:07:25;63.22;;;31.77;;
55007;SDS011;40902;45.116;21.296;2022-12-18T04:09:53;59.40;;;29.92;;
55007;SDS011;40902;45.116;21.296;2022-12-18T04:12:23;65.40;;;32.63;;
55007;SDS011;40902;45.116;21.296;2022-12-18T04:14:51;61.00;;;30.40;;
55007;SDS011;40902;45.116;21.296;2022-12-18T04:17:17;63.45;;;32.65;;
55007;SDS011;40902;45.116;21.296;2022-12-18T04:19:43;63.03;;;31.50;;
55007;SDS011;40902;45.116;21.296;2022-12-18T04:22:09;59.42;;;31.23;;
55007;SDS011;40902;45.116;21.296;2022-12-18T04:24:35;63.42;;;33.08;;
55007;SDS011;40902;45.116;21.296;2022-12-18T04:27:01;59.38;;;30.35;;
55007;SDS011;40902;45.116;21.296;2022-12-18T04:29:27;61.05;;;30.35;;
55007;SDS011;40902;45.116;21.296;2022-12-18T04:31:53;61.75;;;32.22;;
55007;SDS011;40902;45.116;21.296;2022-12-18T04:34:19;64.43;;;30.70;;
55007;SDS011;40902;45.116;21.296;2022-12-18T04:36:45;63.83;;;32.55;;
55007;SDS011;40902;45.116;21.296;2022-12-18T04:39:11;58.03;;;30.98;;
55007;SDS011;40902;45.116;21.296;2022-12-18T04:41:37;61.55;;;30.95;;
55007;SDS011;40902;45.116;21.296;2022-12-18T04:44:03;59.08;;;31.05;;
55007;SDS011;40902;45.116;21.296;2022-12-18T04:46:29;61.78;;;31.55;;
55007;SDS011;40902;45.116;21.296;2022-12-18T04:48:55;62.08;;;29.90;;
55007;SDS011;40902;45.116;21.296;2022-12-18T04:51:20;60.58;;;30.33;;
55007;SDS011;40902;45.116;21.296;2022-12-18T04:53:46;60.65;;;31.80;;
55007;SDS011;40902;45.116;21.296;2022-12-18T04:56:13;64.85;;;32.03;;
55007;SDS011;40902;45.116;21.296;2022-12-18T04:58:40;59.47;;;32.22;;
55007;SDS011;40902;45.116;21.296;2022-12-18T05:01:08;59.10;;;29.65;;
55007;SDS011;40902;45.116;21.296;2022-12-18T05:03:35;64.32;;;32.42;;
55007;SDS011;40902;45.116;21.296;2022-12-18T05:06:01;59.63;;;31.15;;
55007;SDS011;40902;45.116;21.296;2022-12-18T05:08:27;65.32;;;32.83;;
55007;SDS011;40902;45.116;21.296;2022-12-18T05:10:59;66.53;;;32.00;;
55007;SDS011;40902;45.116;21.296;2022-12-18T05:13:26;66.18;;;30.95;;
55007;SDS011;40902;45.116;21.296;2022-12-18T05:15:52;67.03;;;33.05;;
55007;SDS011;40902;45.116;21.296;2022-12-18T05:18:19;63.30;;;31.33;;
55007;SDS011;40902;45.116;21.296;2022-12-18T05:20:45;63.72;;;31.42;;
55007;SDS011;40902;45.116;21.296;2022-12-18T05:23:10;63.78;;;31.13;;
55007;SDS011;40902;45.116;21.296;2022-12-18T05:25:36;65.72;;;32.25;;
55007;SDS011;40902;45.116;21.296;2022-12-18T05:28:02;68.13;;;34.35;;
55007;SDS011;40902;45.116;21.296;2022-12-18T05:30:28;71.00;;;33.03;;
55007;SDS011;40902;45.116;21.296;2022-12-18T05:32:53;66.70;;;32.78;;
55007;SDS011;40902;45.116;21.296;2022-12-18T05:35:19;69.15;;;32.97;;
55007;SDS011;40902;45.116;21.296;2022-12-18T05:37:45;70.07;;;33.92;;
55007;SDS011;40902;45.116;21.296;2022-12-18T05:40:11;60.28;;;30.98;;
55007;SDS011;40902;45.116;21.296;2022-12-18T05:42:36;68.63;;;32.83;;
55007;SDS011;40902;45.116;21.296;2022-12-18T05:45:02;65.68;;;32.05;;
55007;SDS011;40902;45.116;21.296;2022-12-18T05:47:29;68.78;;;33.35;;
55007;SDS011;40902;45.116;21.296;2022-12-18T05:49:55;67.80;;;33.03;;
55007;SDS011;40902;45.116;21.296;2022-12-18T05:52:20;69.70;;;33.53;;
55007;SDS011;40902;45.116;21.296;2022-12-18T05:54:46;66.43;;;31.40;;
55007;SDS011;40902;45.116;21.296;2022-12-18T05:57:12;62.47;;;32.88;;
55007;SDS011;40902;45.116;21.296;2022-12-18T05:59:38;69.55;;;33.65;;
55007;SDS011;40902;45.116;21.296;2022-12-18T06:02:03;64.07;;;34.47;;
55007;SDS011;40902;45.116;21.296;2022-12-18T06:04:29;71.85;;;35.60;;
55007;SDS011;40902;45.116;21.296;2022-12-18T06:06:55;58.83;;;30.52;;
55007;SDS011;40902;45.116;21.296;2022-12-18T06:09:21;59.75;;;30.88;;
55007;SDS011;40902;45.116;21.296;2022-12-18T06:11:46;58.58;;;31.38;;
55007;SDS011;40902;45.116;21.296;2022-12-18T06:14:12;57.47;;;29.33;;
55007;SDS011;40902;45.116;21.296;2022-12-18T06:16:38;58.17;;;30.02;;
55007;SDS011;40902;45.116;21.296;2022-12-18T06:19:04;62.15;;;30.88;;
55007;SDS011;40902;45.116;21.296;2022-12-18T06:21:30;59.22;;;30.90;;
55007;SDS011;40902;45.116;21.296;2022-12-18T06:23:57;61.45;;;31.98;;
55007;SDS011;40902;45.116;21.296;2022-12-18T06:26:23;63.58;;;33.13;;
55007;SDS011;40902;45.116;21.296;2022-12-18T06:28:49;61.03;;;31.15;;
55007;SDS011;40902;45.116;21.296;2022-12-18T06:31:15;65.05;;;30.77;;
55007;SDS011;40902;45.116;21.296;2022-12-18T06:33:41;63.63;;;32.58;;
55007;SDS011;40902;45.116;21.296;2022-12-18T06:36:07;59.67;;;29.55;;
55007;SDS011;40902;45.116;21.296;2022-12-18T06:38:36;66.95;;;31.90;;
55007;SDS011;40902;45.116;21.296;2022-12-18T06:41:11;62.22;;;31.40;;
55007;SDS011;40902;45.116;21.296;2022-12-18T06:43:42;65.53;;;32.08;;
55007;SDS011;40902;45.116;21.296;2022-12-18T06:46:09;71.43;;;34.97;;
55007;SDS011;40902;45.116;21.296;2022-12-18T06:48:35;66.70;;;32.83;;
55007;SDS011;40902;45.116;21.296;2022-12-18T06:51:00;63.42;;;31.40;;
55007;SDS011;40902;45.116;21.296;2022-12-18T06:53:27;64.25;;;31.92;;
55007;SDS011;40902;45.116;21.296;2022-12-18T06:55:59;65.15;;;32.65;;
55007;SDS011;40902;45.116;21.296;2022-12-18T06:58:28;63.97;;;32.78;;
55007;SDS011;40902;45.116;21.296;2022-12-18T07:00:59;70.68;;;34.75;;
55007;SDS011;40902;45.116;21.296;2022-12-18T07:03:28;63.15;;;31.80;;
55007;SDS011;40902;45.116;21.296;2022-12-18T07:05:54;62.88;;;32.28;;
55007;SDS011;40902;45.116;21.296;2022-12-18T07:08:20;66.00;;;33.78;;
55007;SDS011;40902;45.116;21.296;2022-12-18T07:10:46;63.15;;;32.10;;
55007;SDS011;40902;45.116;21.296;2022-12-18T07:13:15;68.68;;;37.17;;
55007;SDS011;40902;45.116;21.296;2022-12-18T07:15:42;65.28;;;35.22;;
55007;SDS011;40902;45.116;21.296;2022-12-18T07:18:09;63.53;;;34.00;;
55007;SDS011;40902;45.116;21.296;2022-12-18T07:20:35;62.65;;;32.03;;
55007;SDS011;40902;45.116;21.296;2022-12-18T07:23:03;62.13;;;31.80;;
55007;SDS011;40902;45.116;21.296;2022-12-18T07:25:32;64.18;;;32.47;;
55007;SDS011;40902;45.116;21.296;2022-12-18T07:27:59;63.35;;;32.42;;
55007;SDS011;40902;45.116;21.296;2022-12-18T07:30:25;65.05;;;32.78;;
55007;SDS011;40902;45.116;21.296;2022-12-18T07:32:51;61.30;;;32.45;;
55007;SDS011;40902;45.116;21.296;2022-12-18T07:35:17;67.43;;;33.25;;
55007;SDS011;40902;45.116;21.296;2022-12-18T07:37:42;63.13;;;31.27;;
55007;SDS011;40902;45.116;21.296;2022-12-18T07:40:08;63.60;;;33.08;;
55007;SDS011;40902;45.116;21.296;2022-12-18T07:42:34;63.80;;;31.70;;
55007;SDS011;40902;45.116;21.296;2022-12-18T07:45:02;67.25;;;34.47;;
55007;SDS011;40902;45.116;21.296;2022-12-18T07:47:29;63.08;;;31.80;;
55007;SDS011;40902;45.116;21.296;2022-12-18T07:49:55;61.17;;;31.75;;
55007;SDS011;40902;45.116;21.296;2022-12-18T07:52:23;60.40;;;30.38;;
55007;SDS011;40902;45.116;21.296;2022-12-18T07:54:49;63.70;;;32.03;;
55007;SDS011;40902;45.116;21.296;2022-12-18T07:57:16;64.65;;;32.80;;
55007;SDS011;40902;45.116;21.296;2022-12-18T07:59:44;63.97;;;30.92;;
55007;SDS011;40902;45.116;21.296;2022-12-18T08:02:10;63.30;;;31.35;;
55007;SDS011;40902;45.116;21.296;2022-12-18T08:04:36;60.95;;;31.65;;
55007;SDS011;40902;45.116;21.296;2022-12-18T08:07:02;59.97;;;29.83;;
55007;SDS011;40902;45.116;21.296;2022-12-18T08:09:28;62.88;;;31.70;;
55007;SDS011;40902;45.116;21.296;2022-12-18T08:11:53;56.60;;;29.15;;
55007;SDS011;40902;45.116;21.296;2022-12-18T08:14:19;61.22;;;31.90;;
55007;SDS011;40902;45.116;21.296;2022-12-18T08:16:45;58.53;;;29.48;;
55007;SDS011;40902;45.116;21.296;2022-12-18T08:19:11;60.55;;;30.55;;
55007;SDS011;40902;45.116;21.296;2022-12-18T08:21:37;60.75;;;31.98;;
55007;SDS011;40902;45.116;21.296;2022-12-18T08:24:06;57.97;;;31.60;;
55007;SDS011;40902;45.116;21.296;2022-12-18T08:26:32;67.47;;;35.05;;
55007;SDS011;40902;45.116;21.296;2022-12-18T08:28:58;68.18;;;35.30;;
55007;SDS011;40902;45.116;21.296;2022-12-18T08:31:25;57.50;;;30.25;;
55007;SDS011;40902;45.116;21.296;2022-12-18T08:33:52;59.95;;;29.88;;
55007;SDS011;40902;45.116;21.296;2022-12-18T08:36:19;56.05;;;29.38;;
55007;SDS011;40902;45.116;21.296;2022-12-18T08:38:45;62.70;;;32.28;;
55007;SDS011;40902;45.116;21.296;2022-12-18T08:41:12;62.00;;;32.00;;
55007;SDS011;40902;45.116;21.296;2022-12-18T08:43:39;62.72;;;33.38;;
55007;SDS011;40902;45.116;21.296;2022-12-18T08:46:24;62.67;;;31.55;;
55007;SDS011;40902;45.116;21.296;2022-12-18T08:48:52;63.40;;;33.28;;
55007;SDS011;40902;45.116;21.296;2022-12-18T08:51:19;70.85;;;41.05;;
55007;SDS011;40902;45.116;21.296;2022-12-18T08:53:45;63.95;;;32.75;;
55007;SDS011;40902;45.116;21.296;2022-12-18T08:56:13;66.10;;;30.73;;
55007;SDS011;40902;45.116;21.296;2022-12-18T08:58:39;63.50;;;32.75;;
55007;SDS011;40902;45.116;21.296;2022-12-18T09:01:07;64.22;;;31.73;;
55007;SDS011;40902;45.116;21.296;2022-12-18T09:03:35;61.65;;;31.65;;
55007;SDS011;40902;45.116;21.296;2022-12-18T09:06:02;62.20;;;31.88;;
55007;SDS011;40902;45.116;21.296;2022-12-18T09:08:29;67.82;;;33.05;;
55007;SDS011;40902;45.116;21.296;2022-12-18T09:10:54;65.45;;;33.90;;
55007;SDS011;40902;45.116;21.296;2022-12-18T09:13:20;61.10;;;31.60;;
55007;SDS011;40902;45.116;21.296;2022-12-18T09:15:48;69.20;;;34.33;;
55007;SDS011;40902;45.116;21.296;2022-12-18T09:18:15;66.55;;;32.90;;
55007;SDS011;40902;45.116;21.296;2022-12-18T09:20:42;68.55;;;33.88;;
55007;SDS011;40902;45.116;21.296;2022-12-18T09:23:08;58.13;;;31.23;;
55007;SDS011;40902;45.116;21.296;2022-12-18T09:25:35;62.78;;;33.05;;
55007;SDS011;40902;45.116;21.296;2022-12-18T09:28:02;63.05;;;32.15;;
55007;SDS011;40902;45.116;21.296;2022-12-18T09:30:29;59.13;;;31.23;;
55007;SDS011;40902;45.116;21.296;2022-12-18T09:32:55;66.50;;;32.85;;
55007;SDS011;40902;45.116;21.296;2022-12-18T09:35:21;65.07;;;32.45;;
55007;SDS011;40902;45.116;21.296;2022-12-18T09:37:46;67.47;;;32.28;;
55007;SDS011;40902;45.116;21.296;2022-12-18T09:40:19;77.38;;;38.08;;
55007;SDS011;40902;45.116;21.296;2022-12-18T09:43:00;55.50;;;30.40;;
55007;SDS011;40902;45.116;21.296;2022-12-18T09:45:30;71.60;;;37.33;;
55007;SDS011;40902;45.116;21.296;2022-12-18T09:48:00;63.03;;;32.75;;
55007;SDS011;40902;45.116;21.296;2022-12-18T09:50:29;66.05;;;34.83;;
55007;SDS011;40902;45.116;21.296;2022-12-18T09:52:59;59.90;;;30.33;;
55007;SDS011;40902;45.116;21.296;2022-12-18T09:55:40;67.05;;;32.78;;
55007;SDS011;40902;45.116;21.296;2022-12-18T09:58:28;64.18;;;32.03;;
55007;SDS011;40902;45.116;21.296;2022-12-18T10:01:22;69.85;;;35.47;;
55007;SDS011;40902;45.116;21.296;2022-12-18T10:03:50;62.47;;;31.90;;
55007;SDS011;40902;45.116;21.296;2022-12-18T10:07:03;64.43;;;32.63;;
55007;SDS011;40902;45.116;21.296;2022-12-18T10:12:07;60.58;;;30.40;;
55007;SDS011;40902;45.116;21.296;2022-12-18T10:15:01;67.35;;;35.83;;
55007;SDS011;40902;45.116;21.296;2022-12-18T10:20:32;62.08;;;32.22;;
55007;SDS011;40902;45.116;21.296;2022-12-18T10:28:25;60.00;;;31.38;;
55007;SDS011;40902;45.116;21.296;2022-12-18T10:30:52;67.70;;;33.58;;
55007;SDS011;40902;45.116;21.296;2022-12-18T10:33:19;65.70;;;34.35;;
55007;SDS011;40902;45.116;21.296;2022-12-18T10:35:48;66.63;;;34.90;;
55007;SDS011;40902;45.116;21.296;2022-12-18T10:43:20;72.90;;;35.55;;
55007;SDS011;40902;45.116;21.296;2022-12-18T10:48:36;65.97;;;33.42;;
55007;SDS011;40902;45.116;21.296;2022-12-18T10:51:02;64.63;;;32.53;;
55007;SDS011;40902;45.116;21.296;2022-12-18T10:53:29;64.47;;;33.40;;
55007;SDS011;40902;45.116;21.296;2022-12-18T10:55:57;63.22;;;32.25;;
55007;SDS011;40902;45.116;21.296;2022-12-18T10:58:25;65.28;;;34.72;;
55007;SDS011;40902;45.116;21.296;2022-12-18T11:03:43;61.22;;;32.17;;
55007;SDS011;40902;45.116;21.296;2022-12-18T11:06:12;68.50;;;33.58;;
55007;SDS011;40902;45.116;21.296;2022-12-18T11:08:40;68.97;;;34.83;;
55007;SDS011;40902;45.116;21.296;2022-12-18T11:11:15;76.40;;;35.38;;
55007;SDS011;40902;45.116;21.296;2022-12-18T11:13:55;72.00;;;36.20;;
55007;SDS011;40902;45.116;21.296;2022-12-18T11:16:43;69.88;;;34.85;;
55007;SDS011;40902;45.116;21.296;2022-12-18T11:22:00;65.68;;;33.08;;
55007;SDS011;40902;45.116;21.296;2022-12-18T11:24:30;62.47;;;33.13;;
55007;SDS011;40902;45.116;21.296;2022-12-18T11:27:01;70.88;;;35.63;;
55007;SDS011;40902;45.116;21.296;2022-12-18T11:29:30;63.78;;;32.10;;
55007;SDS011;40902;45.116;21.296;2022-12-18T11:34:53;72.93;;;35.42;;
55007;SDS011;40902;45.116;21.296;2022-12-18T11:37:29;73.18;;;37.28;;
55007;SDS011;40902;45.116;21.296;2022-12-18T11:39:57;68.10;;;33.95;;
55007;SDS011;40902;45.116;21.296;2022-12-18T11:45:02;63.95;;;31.75;;
55007;SDS011;40902;45.116;21.296;2022-12-18T11:47:43;72.18;;;34.60;;
55007;SDS011;40902;45.116;21.296;2022-12-18T11:50:13;67.60;;;34.58;;
55007;SDS011;40902;45.116;21.296;2022-12-18T11:52:43;68.28;;;33.03;;
55007;SDS011;40902;45.116;21.296;2022-12-18T11:55:13;70.43;;;34.03;;
55007;SDS011;40902;45.116;21.296;2022-12-18T12:00:16;67.18;;;33.13;;
55007;SDS011;40902;45.116;21.296;2022-12-18T12:14:37;57.75;;;30.92;;
55007;SDS011;40902;45.116;21.296;2022-12-18T12:17:44;59.15;;;30.23;;
55007;SDS011;40902;45.116;21.296;2022-12-18T12:20:42;63.05;;;31.92;;
55007;SDS011;40902;45.116;21.296;2022-12-18T12:23:41;69.78;;;33.92;;
55007;SDS011;40902;45.116;21.296;2022-12-18T12:26:23;65.72;;;33.95;;
55007;SDS011;40902;45.116;21.296;2022-12-18T12:29:01;60.65;;;31.00;;
55007;SDS011;40902;45.116;21.296;2022-12-18T12:39:31;63.08;;;33.45;;
55007;SDS011;40902;45.116;21.296;2022-12-18T12:42:05;64.38;;;34.63;;
55007;SDS011;40902;45.116;21.296;2022-12-18T12:45:14;70.30;;;36.72;;
55007;SDS011;40902;45.116;21.296;2022-12-18T12:47:46;62.65;;;35.10;;
55007;SDS011;40902;45.116;21.296;2022-12-18T12:50:15;65.00;;;34.30;;
55007;SDS011;40902;45.116;21.296;2022-12-18T12:52:47;69.05;;;35.67;;
55007;SDS011;40902;45.116;21.296;2022-12-18T12:55:22;66.63;;;34.92;;
55007;SDS011;40902;45.116;21.296;2022-12-18T12:58:06;65.45;;;32.55;;
55007;SDS011;40902;45.116;21.296;2022-12-18T13:00:54;70.90;;;36.03;;
55007;SDS011;40902;45.116;21.296;2022-12-18T13:03:39;83.05;;;42.38;;
55007;SDS011;40902;45.116;21.296;2022-12-18T13:09:21;66.07;;;35.78;;
55007;SDS011;40902;45.116;21.296;2022-12-18T13:11:47;68.25;;;37.90;;
55007;SDS011;40902;45.116;21.296;2022-12-18T13:14:32;61.75;;;32.75;;
55007;SDS011;40902;45.116;21.296;2022-12-18T13:19:50;56.20;;;29.70;;
55007;SDS011;40902;45.116;21.296;2022-12-18T13:22:24;58.85;;;33.33;;
55007;SDS011;40902;45.116;21.296;2022-12-18T13:24:55;58.05;;;32.03;;
55007;SDS011;40902;45.116;21.296;2022-12-18T13:35:40;66.05;;;33.65;;
55007;SDS011;40902;45.116;21.296;2022-12-18T13:46:03;62.63;;;32.85;;
55007;SDS011;40902;45.116;21.296;2022-12-18T13:48:32;68.40;;;34.83;;
55007;SDS011;40902;45.116;21.296;2022-12-18T13:51:08;67.65;;;34.75;;
55007;SDS011;40902;45.116;21.296;2022-12-18T13:53:47;67.95;;;35.80;;
55007;SDS011;40902;45.116;21.296;2022-12-18T13:56:22;76.90;;;38.42;;
55007;SDS011;40902;45.116;21.296;2022-12-18T14:01:41;75.45;;;37.92;;
55007;SDS011;40902;45.116;21.296;2022-12-18T14:04:27;74.05;;;37.20;;
55007;SDS011;40902;45.116;21.296;2022-12-18T14:06:56;77.93;;;40.78;;
55007;SDS011;40902;45.116;21.296;2022-12-18T14:09:28;81.18;;;40.92;;
55007;SDS011;40902;45.116;21.296;2022-12-18T14:11:56;84.95;;;43.67;;
55007;SDS011;40902;45.116;21.296;2022-12-18T14:14:43;82.63;;;42.47;;
55007;SDS011;40902;45.116;21.296;2022-12-18T14:17:12;83.38;;;43.10;;
55007;SDS011;40902;45.116;21.296;2022-12-18T14:19:46;82.85;;;43.75;;
55007;SDS011;40902;45.116;21.296;2022-12-18T14:22:17;88.28;;;43.72;;
55007;SDS011;40902;45.116;21.296;2022-12-18T14:24:46;82.55;;;42.83;;
55007;SDS011;40902;45.116;21.296;2022-12-18T14:27:25;84.97;;;44.17;;
55007;SDS011;40902;45.116;21.296;2022-12-18T14:29:50;80.03;;;42.30;;
55007;SDS011;40902;45.116;21.296;2022-12-18T14:32:17;88.80;;;44.85;;
55007;SDS011;40902;45.116;21.296;2022-12-18T14:34:51;84.30;;;43.75;;
55007;SDS011;40902;45.116;21.296;2022-12-18T14:37:22;99.88;;;49.33;;
55007;SDS011;40902;45.116;21.296;2022-12-18T14:39:56;99.45;;;49.28;;
55007;SDS011;40902;45.116;21.296;2022-12-18T14:42:24;88.47;;;47.15;;
55007;SDS011;40902;45.116;21.296;2022-12-18T14:45:39;89.10;;;46.03;;
55007;SDS011;40902;45.116;21.296;2022-12-18T14:47:57;92.38;;;45.72;;
55007;SDS011;40902;45.116;21.296;2022-12-18T14:50:26;82.05;;;43.20;;
55007;SDS011;40902;45.116;21.296;2022-12-18T14:52:52;82.45;;;42.60;;
55007;SDS011;40902;45.116;21.296;2022-12-18T14:55:18;88.47;;;46.42;;
55007;SDS011;40902;45.116;21.296;2022-12-18T14:57:45;81.80;;;41.67;;
55007;SDS011;40902;45.116;21.296;2022-12-18T15:00:20;83.88;;;42.67;;
55007;SDS011;40902;45.116;21.296;2022-12-18T15:02:48;83.88;;;42.20;;
55007;SDS011;40902;45.116;21.296;2022-12-18T15:05:19;82.88;;;41.72;;
55007;SDS011;40902;45.116;21.296;2022-12-18T15:07:56;85.82;;;42.72;;
55007;SDS011;40902;45.116;21.296;2022-12-18T15:10:24;82.10;;;42.85;;
55007;SDS011;40902;45.116;21.296;2022-12-18T15:20:40;91.10;;;44.92;;
55007;SDS011;40902;45.116;21.296;2022-12-18T15:23:18;93.03;;;46.92;;
55007;SDS011;40902;45.116;21.296;2022-12-18T15:25:47;87.68;;;46.13;;
55007;SDS011;40902;45.116;21.296;2022-12-18T15:33:37;94.18;;;44.92;;
55007;SDS011;40902;45.116;21.296;2022-12-18T15:36:11;89.45;;;44.65;;
55007;SDS011;40902;45.116;21.296;2022-12-18T15:38:38;89.20;;;45.22;;
55007;SDS011;40902;45.116;21.296;2022-12-18T15:41:14;84.68;;;43.97;;
55007;SDS011;40902;45.116;21.296;2022-12-18T15:43:41;89.38;;;43.33;;
55007;SDS011;40902;45.116;21.296;2022-12-18T15:46:14;85.53;;;43.05;;
55007;SDS011;40902;45.116;21.296;2022-12-18T15:48:42;92.80;;;46.90;;
55007;SDS011;40902;45.116;21.296;2022-12-18T15:51:16;90.53;;;46.05;;
55007;SDS011;40902;45.116;21.296;2022-12-18T15:53:52;94.40;;;48.42;;
55007;SDS011;40902;45.116;21.296;2022-12-18T15:56:20;98.85;;;48.00;;
55007;SDS011;40902;45.116;21.296;2022-12-18T15:59:08;83.53;;;41.85;;
55007;SDS011;40902;45.116;21.296;2022-12-18T16:01:37;83.15;;;40.95;;
55007;SDS011;40902;45.116;21.296;2022-12-18T16:04:02;76.70;;;38.20;;
55007;SDS011;40902;45.116;21.296;2022-12-18T16:06:28;73.05;;;39.05;;
55007;SDS011;40902;45.116;21.296;2022-12-18T16:08:54;81.47;;;41.28;;
55007;SDS011;40902;45.116;21.296;2022-12-18T16:14:02;74.85;;;38.83;;
55007;SDS011;40902;45.116;21.296;2022-12-18T16:16:44;83.32;;;41.47;;
55007;SDS011;40902;45.116;21.296;2022-12-18T16:19:11;81.22;;;40.28;;
55007;SDS011;40902;45.116;21.296;2022-12-18T16:21:37;79.97;;;39.42;;
55007;SDS011;40902;45.116;21.296;2022-12-18T16:24:03;79.88;;;40.42;;
55007;SDS011;40902;45.116;21.296;2022-12-18T16:26:31;78.70;;;40.20;;
55007;SDS011;40902;45.116;21.296;2022-12-18T16:28:57;77.03;;;39.25;;
55007;SDS011;40902;45.116;21.296;2022-12-18T16:31:23;75.88;;;38.55;;
55007;SDS011;40902;45.116;21.296;2022-12-18T16:33:48;78.70;;;40.17;;